Terminal Aerodrome Forecast
Issued by NWS Wilmington, OH

Current Version | Previous Version | Graphics & Text | Print | Product List | Glossary On
Versions: 1 2 3 4 5 6 7 8 9 10 11 12 13 14 15 16 17 18 19 20 21 22 23
000
FTUS41 KILN 242300
TAFCVG
TAF
KCVG 242334Z 2500/2606 08006KT P6SM SCT200
     FM250700 VRB03KT 4SM BR SCT200
      TEMPO 2509/2512 3SM BR FEW010
     FM251300 13006KT P6SM SCT060
     FM252300 13004KT P6SM SCT250=

USA.gov is the U.S. government's official web portal to all federal, state and local government web resources and services.